HISTORICAL SENSOR DATA

Sensor Data Report

DB LIVE
CURRENT TIME--:--:--
DEVICE NETWORK Gateway Status
13 ESP · realtime ~1s · history 60s
Weather WS-MOD-01
ONLINE
Actuator ACT-MOD-01
OFFLINE
Mainboard L3 MB-L3-01
ONLINE
Mainboard L5 MB-L5-01
ONLINE
Remote AC AC-REMOTE-01
ONLINE
PZEM L3-01 PWR-L3-01
OFFLINE
PZEM L3-02 PWR-L3-02
OFFLINE
PZEM L3-03 PWR-L3-03
OFFLINE
PZEM L3-04 PWR-L3-04
OFFLINE
PZEM L5-01 PWR-L5-01
ONLINE
PZEM L5-02 PWR-L5-02
ONLINE
PZEM L5-03 PWR-L5-03
OFFLINE
PZEM L5-04 PWR-L5-04
OFFLINE
REPORT FILTER

Periode & Sensor

DATABASE HISTORY
RESET
QUICK RANGE Hari ini 7 hari 30 hari
PERIODE01 Sep 2026sampai 07 Sep 2026
TOTAL DATA94,957sensor readings
MINIMUM-0.50sesuai filter
AVERAGE72.33sesuai filter
MAXIMUM32,564.20sesuai filter
REPORT RESULT

Data Sensor

01/09/2026 — 07/09/2026 EXPORT CSV
NOTANGGALWAKTUDEVICECHANNELSENSORVALUEUNIT
801 07/09/2026 06:30:00 PWR-L5-01Power Meter L5 PZEM 01 PZEM-L5-01-CURR PZEM L5-01 Current 0.12 A
802 07/09/2026 06:30:00 MB-L5-01Mainboard Lantai 5 L5-SHT-02-RH SHT20 2 Humidity 46.40 %RH
803 07/09/2026 06:30:00 PWR-L5-02Power Meter L5 PZEM 02 PZEM-L5-02-VOLT PZEM L5-02 Voltage 225.60 V
804 07/09/2026 06:30:00 MB-L5-01Mainboard Lantai 5 L5-RAD-01 Radiation 1 2.00 W/m²
805 07/09/2026 06:30:00 MB-L5-01Mainboard Lantai 5 L5-HFT-02 Heat Flow Temperature 2 22.40 °C
806 07/09/2026 06:30:00 MB-L5-01Mainboard Lantai 5 L5-LUX-06 Illuminance / LUX 6 329.90 lux
807 07/09/2026 06:30:00 MB-L3-01Mainboard Lantai 3 L3-AI-05 Analog Input 5 3.12 V
808 07/09/2026 06:30:00 MB-L5-01Mainboard Lantai 5 L5-AI-05 Analog Input 5 3.05 V
809 07/09/2026 06:30:00 PWR-L5-01Power Meter L5 PZEM 01 PZEM-L5-01-POWER PZEM L5-01 Active Power 10.40 W
810 07/09/2026 06:30:00 MB-L5-01Mainboard Lantai 5 L5-LUX-03 Illuminance / LUX 3 330.20 lux
811 07/09/2026 06:30:00 MB-L5-01Mainboard Lantai 5 L5-AI-02 Analog Input 2 3.05 V
812 07/09/2026 06:30:00 MB-L5-01Mainboard Lantai 5 L5-BGT-01 Black Globe Temperature 1 26.20 °C
813 07/09/2026 06:30:00 MB-L5-01Mainboard Lantai 5 L5-SHT-01-T SHT20 1 Temperature 27.90 °C
814 07/09/2026 06:30:00 PWR-L5-01Power Meter L5 PZEM 01 PZEM-L5-01-ENERGY PZEM L5-01 Energy 0.13 kWh
815 07/09/2026 06:30:00 MB-L5-01Mainboard Lantai 5 L5-ST-01 Surface Temperature 1 23.30 °C
816 07/09/2026 06:30:00 WS-MOD-01Weather Station Module WS-DIR Arah Angin 78.90 °
817 07/09/2026 06:30:00 MB-L3-01Mainboard Lantai 3 L3-SHT-02-RH SHT20 2 Humidity 46.40 %RH
818 07/09/2026 06:30:00 MB-L5-01Mainboard Lantai 5 L5-LUX-04 Illuminance / LUX 4 199.10 lux
819 07/09/2026 06:30:00 PWR-L5-01Power Meter L5 PZEM 01 PZEM-L5-01-FREQ PZEM L5-01 Frequency 50.00 Hz
820 07/09/2026 06:30:00 MB-L3-01Mainboard Lantai 3 L3-LUX-06 Illuminance / LUX 6 550.80 lux
821 07/09/2026 06:30:00 MB-L3-01Mainboard Lantai 3 L3-LUX-01 Illuminance / LUX 1 187.60 lux
822 07/09/2026 06:30:00 PWR-L5-01Power Meter L5 PZEM 01 PZEM-L5-01-PF PZEM L5-01 Power Factor 0.40
823 07/09/2026 06:30:00 MB-L5-01Mainboard Lantai 5 L5-AI-06 Analog Input 6 3.05 V
824 07/09/2026 06:30:00 MB-L3-01Mainboard Lantai 3 L3-AI-02 Analog Input 2 3.12 V
825 07/09/2026 06:30:00 MB-L3-01Mainboard Lantai 3 L3-SHT-01-RH SHT20 1 Humidity 46.90 %RH
826 07/09/2026 06:30:00 PWR-L5-02Power Meter L5 PZEM 02 PZEM-L5-02-PF PZEM L5-02 Power Factor 0.00
827 07/09/2026 06:30:00 MB-L3-01Mainboard Lantai 3 L3-LUX-05 Illuminance / LUX 5 1,212.50 lux
828 07/09/2026 06:30:00 MB-L5-01Mainboard Lantai 5 L5-LUX-02 Illuminance / LUX 2 1,010.00 lux
829 07/09/2026 06:30:00 MB-L5-01Mainboard Lantai 5 L5-ST-02 Surface Temperature 2 22.70 °C
830 07/09/2026 06:30:00 MB-L3-01Mainboard Lantai 3 L3-RAD-02 Radiation 2 1.00 W/m²
831 07/09/2026 06:30:00 MB-L3-01Mainboard Lantai 3 L3-LUX-04 Illuminance / LUX 4 190.60 lux
832 07/09/2026 06:30:00 MB-L5-01Mainboard Lantai 5 L5-AI-03 Analog Input 3 3.05 V
833 07/09/2026 06:30:00 WS-MOD-01Weather Station Module WS-PRES Tekanan Udara 911.00 hPa
834 07/09/2026 06:30:00 MB-L5-01Mainboard Lantai 5 L5-BGT-02 Black Globe Temperature 2 26.00 °C
835 07/09/2026 06:30:00 MB-L3-01Mainboard Lantai 3 L3-AI-04 Analog Input 4 3.12 V
836 07/09/2026 06:30:00 MB-L3-01Mainboard Lantai 3 L3-SHT-01-T SHT20 1 Temperature 27.90 °C
837 07/09/2026 06:30:00 PWR-L5-02Power Meter L5 PZEM 02 PZEM-L5-02-FREQ PZEM L5-02 Frequency 50.00 Hz
838 07/09/2026 06:30:00 MB-L3-01Mainboard Lantai 3 L3-SHT-03-RH SHT20 3 Humidity 46.30 %RH
839 07/09/2026 06:30:00 AC-REMOTE-01Remote AC AC-FAN AC Fan Speed 0.00 code
840 07/09/2026 06:30:00 WS-MOD-01Weather Station Module WS-RH Kelembapan Udara 77.80 %RH
841 07/09/2026 06:30:00 MB-L3-01Mainboard Lantai 3 L3-AI-06 Analog Input 6 3.12 V
842 07/09/2026 06:30:00 PWR-L5-02Power Meter L5 PZEM 02 PZEM-L5-02-ENERGY PZEM L5-02 Energy 0.04 kWh
843 07/09/2026 06:30:00 AC-REMOTE-01Remote AC AC-MODE AC Operating Mode 1.00 code
844 07/09/2026 06:29:00 MB-L5-01Mainboard Lantai 5 L5-SHT-01-RH SHT20 1 Humidity 47.20 %RH
845 07/09/2026 06:29:00 MB-L3-01Mainboard Lantai 3 L3-AI-03 Analog Input 3 3.12 V
846 07/09/2026 06:29:00 MB-L5-01Mainboard Lantai 5 L5-SHT-02-T SHT20 2 Temperature 28.30 °C
847 07/09/2026 06:29:00 PWR-L5-01Power Meter L5 PZEM 01 PZEM-L5-01-CURR PZEM L5-01 Current 0.11 A
848 07/09/2026 06:29:00 MB-L5-01Mainboard Lantai 5 L5-SHT-02-RH SHT20 2 Humidity 46.40 %RH
849 07/09/2026 06:29:00 PWR-L5-02Power Meter L5 PZEM 02 PZEM-L5-02-VOLT PZEM L5-02 Voltage 225.50 V
850 07/09/2026 06:29:00 MB-L5-01Mainboard Lantai 5 L5-RAD-01 Radiation 1 2.00 W/m²
851 07/09/2026 06:29:00 MB-L5-01Mainboard Lantai 5 L5-HFT-02 Heat Flow Temperature 2 22.40 °C
852 07/09/2026 06:29:00 MB-L5-01Mainboard Lantai 5 L5-LUX-06 Illuminance / LUX 6 320.60 lux
853 07/09/2026 06:29:00 MB-L3-01Mainboard Lantai 3 L3-AI-05 Analog Input 5 3.12 V
854 07/09/2026 06:29:00 MB-L5-01Mainboard Lantai 5 L5-AI-05 Analog Input 5 3.05 V
855 07/09/2026 06:29:00 PWR-L5-01Power Meter L5 PZEM 01 PZEM-L5-01-POWER PZEM L5-01 Active Power 9.90 W
856 07/09/2026 06:29:00 MB-L5-01Mainboard Lantai 5 L5-LUX-03 Illuminance / LUX 3 320.80 lux
857 07/09/2026 06:29:00 MB-L5-01Mainboard Lantai 5 L5-AI-02 Analog Input 2 3.05 V
858 07/09/2026 06:29:00 MB-L5-01Mainboard Lantai 5 L5-BGT-01 Black Globe Temperature 1 26.20 °C
859 07/09/2026 06:29:00 MB-L5-01Mainboard Lantai 5 L5-SHT-01-T SHT20 1 Temperature 27.80 °C
860 07/09/2026 06:29:00 PWR-L5-01Power Meter L5 PZEM 01 PZEM-L5-01-ENERGY PZEM L5-01 Energy 0.13 kWh
861 07/09/2026 06:29:00 MB-L5-01Mainboard Lantai 5 L5-ST-01 Surface Temperature 1 23.20 °C
862 07/09/2026 06:29:00 WS-MOD-01Weather Station Module WS-DIR Arah Angin 71.70 °
863 07/09/2026 06:29:00 MB-L3-01Mainboard Lantai 3 L3-SHT-02-RH SHT20 2 Humidity 46.40 %RH
864 07/09/2026 06:29:00 MB-L5-01Mainboard Lantai 5 L5-LUX-04 Illuminance / LUX 4 192.10 lux
865 07/09/2026 06:29:00 PWR-L5-01Power Meter L5 PZEM 01 PZEM-L5-01-FREQ PZEM L5-01 Frequency 50.00 Hz
866 07/09/2026 06:29:00 MB-L3-01Mainboard Lantai 3 L3-LUX-06 Illuminance / LUX 6 534.90 lux
867 07/09/2026 06:29:00 MB-L3-01Mainboard Lantai 3 L3-LUX-01 Illuminance / LUX 1 181.30 lux
868 07/09/2026 06:29:00 PWR-L5-01Power Meter L5 PZEM 01 PZEM-L5-01-PF PZEM L5-01 Power Factor 0.39
869 07/09/2026 06:29:00 MB-L5-01Mainboard Lantai 5 L5-AI-06 Analog Input 6 3.05 V
870 07/09/2026 06:29:00 MB-L3-01Mainboard Lantai 3 L3-AI-02 Analog Input 2 3.12 V
871 07/09/2026 06:29:00 MB-L3-01Mainboard Lantai 3 L3-SHT-01-RH SHT20 1 Humidity 46.80 %RH
872 07/09/2026 06:29:00 PWR-L5-02Power Meter L5 PZEM 02 PZEM-L5-02-PF PZEM L5-02 Power Factor 0.00
873 07/09/2026 06:29:00 MB-L3-01Mainboard Lantai 3 L3-LUX-05 Illuminance / LUX 5 1,158.90 lux
874 07/09/2026 06:29:00 MB-L5-01Mainboard Lantai 5 L5-LUX-02 Illuminance / LUX 2 979.30 lux
875 07/09/2026 06:29:00 MB-L5-01Mainboard Lantai 5 L5-ST-02 Surface Temperature 2 22.60 °C
876 07/09/2026 06:29:00 MB-L3-01Mainboard Lantai 3 L3-RAD-02 Radiation 2 1.00 W/m²
877 07/09/2026 06:29:00 MB-L3-01Mainboard Lantai 3 L3-LUX-04 Illuminance / LUX 4 183.90 lux
878 07/09/2026 06:29:00 MB-L5-01Mainboard Lantai 5 L5-AI-03 Analog Input 3 3.05 V
879 07/09/2026 06:29:00 WS-MOD-01Weather Station Module WS-PRES Tekanan Udara 911.00 hPa
880 07/09/2026 06:29:00 MB-L5-01Mainboard Lantai 5 L5-BGT-02 Black Globe Temperature 2 26.10 °C
881 07/09/2026 06:29:00 MB-L3-01Mainboard Lantai 3 L3-AI-04 Analog Input 4 3.12 V
882 07/09/2026 06:29:00 MB-L3-01Mainboard Lantai 3 L3-SHT-01-T SHT20 1 Temperature 28.00 °C
883 07/09/2026 06:29:00 PWR-L5-02Power Meter L5 PZEM 02 PZEM-L5-02-FREQ PZEM L5-02 Frequency 50.00 Hz
884 07/09/2026 06:29:00 MB-L3-01Mainboard Lantai 3 L3-SHT-03-RH SHT20 3 Humidity 46.30 %RH
885 07/09/2026 06:29:00 AC-REMOTE-01Remote AC AC-FAN AC Fan Speed 0.00 code
886 07/09/2026 06:29:00 WS-MOD-01Weather Station Module WS-RH Kelembapan Udara 77.90 %RH
887 07/09/2026 06:29:00 MB-L3-01Mainboard Lantai 3 L3-AI-06 Analog Input 6 3.12 V
888 07/09/2026 06:29:00 PWR-L5-02Power Meter L5 PZEM 02 PZEM-L5-02-ENERGY PZEM L5-02 Energy 0.04 kWh
889 07/09/2026 06:29:00 AC-REMOTE-01Remote AC AC-MODE AC Operating Mode 1.00 code
890 07/09/2026 06:29:00 AC-REMOTE-01Remote AC AC-SETPOINT AC Set Temperature 23.00 °C
891 07/09/2026 06:29:00 WS-MOD-01Weather Station Module WS-TEMP Suhu Udara 19.00 °C
892 07/09/2026 06:29:00 MB-L5-01Mainboard Lantai 5 L5-AI-04 Analog Input 4 3.05 V
893 07/09/2026 06:29:00 MB-L5-01Mainboard Lantai 5 L5-HFT-01 Heat Flow Temperature 1 23.10 °C
894 07/09/2026 06:29:00 MB-L5-01Mainboard Lantai 5 L5-BGT-03 Black Globe Temperature 3 25.90 °C
895 07/09/2026 06:29:00 MB-L3-01Mainboard Lantai 3 L3-RAD-01 Radiation 1 2.00 W/m²
896 07/09/2026 06:29:00 PWR-L5-02Power Meter L5 PZEM 02 PZEM-L5-02-POWER PZEM L5-02 Active Power 0.00 W
897 07/09/2026 06:29:00 MB-L3-01Mainboard Lantai 3 L3-LUX-03 Illuminance / LUX 3 325.80 lux
898 07/09/2026 06:29:00 MB-L3-01Mainboard Lantai 3 L3-LUX-02 Illuminance / LUX 2 287.80 lux
899 07/09/2026 06:29:00 MB-L5-01Mainboard Lantai 5 L5-LUX-01 Illuminance / LUX 1 218.80 lux
900 07/09/2026 06:29:00 AC-REMOTE-01Remote AC AC-POWER AC Power State 1.00 state
Menampilkan maksimal 100 data per halaman